sensor_id;sensor_type;location;lat;lon;timestamp;temperature;humidity
3944;DHT22;1986;52.546;13.428;2023-03-14T00:00:19;13.10;99.90
3944;DHT22;1986;52.546;13.428;2023-03-14T00:02:54;13.00;99.90
3944;DHT22;1986;52.546;13.428;2023-03-14T00:05:27;12.90;99.90
3944;DHT22;1986;52.546;13.428;2023-03-14T00:07:55;12.90;99.90
3944;DHT22;1986;52.546;13.428;2023-03-14T00:10:26;12.90;99.90
3944;DHT22;1986;52.546;13.428;2023-03-14T00:12:54;12.90;99.90
3944;DHT22;1986;52.546;13.428;2023-03-14T00:15:21;12.80;99.90
3944;DHT22;1986;52.546;13.428;2023-03-14T00:17:50;12.80;99.90
3944;DHT22;1986;52.546;13.428;2023-03-14T00:20:17;12.80;99.90
3944;DHT22;1986;52.546;13.428;2023-03-14T00:22:44;12.70;99.90
3944;DHT22;1986;52.546;13.428;2023-03-14T00:25:14;12.70;99.90
3944;DHT22;1986;52.546;13.428;2023-03-14T00:27:44;12.60;99.90
3944;DHT22;1986;52.546;13.428;2023-03-14T00:30:11;12.60;99.90
3944;DHT22;1986;52.546;13.428;2023-03-14T00:32:38;12.50;99.90
3944;DHT22;1986;52.546;13.428;2023-03-14T00:35:06;12.50;99.90
3944;DHT22;1986;52.546;13.428;2023-03-14T00:37:33;12.50;99.90
3944;DHT22;1986;52.546;13.428;2023-03-14T00:40:03;12.40;99.90
3944;DHT22;1986;52.546;13.428;2023-03-14T00:42:34;12.40;99.90
3944;DHT22;1986;52.546;13.428;2023-03-14T00:45:01;12.40;99.90
3944;DHT22;1986;52.546;13.428;2023-03-14T00:47:29;12.40;99.90
3944;DHT22;1986;52.546;13.428;2023-03-14T00:49:56;12.30;99.90
3944;DHT22;1986;52.546;13.428;2023-03-14T00:52:23;12.30;99.90
3944;DHT22;1986;52.546;13.428;2023-03-14T00:54:50;12.30;99.90
3944;DHT22;1986;52.546;13.428;2023-03-14T00:57:17;12.20;99.90
3944;DHT22;1986;52.546;13.428;2023-03-14T00:59:45;12.20;99.90
3944;DHT22;1986;52.546;13.428;2023-03-14T01:02:12;12.20;99.90
3944;DHT22;1986;52.546;13.428;2023-03-14T01:04:40;12.20;99.90
3944;DHT22;1986;52.546;13.428;2023-03-14T01:07:08;12.10;99.90
3944;DHT22;1986;52.546;13.428;2023-03-14T01:09:35;12.10;99.90
3944;DHT22;1986;52.546;13.428;2023-03-14T01:12:03;12.10;99.90
3944;DHT22;1986;52.546;13.428;2023-03-14T01:14:30;12.10;99.90
3944;DHT22;1986;52.546;13.428;2023-03-14T01:16:58;12.10;99.90
3944;DHT22;1986;52.546;13.428;2023-03-14T01:19:26;12.00;99.90
3944;DHT22;1986;52.546;13.428;2023-03-14T01:21:56;12.00;99.90
3944;DHT22;1986;52.546;13.428;2023-03-14T01:24:23;12.00;99.90
3944;DHT22;1986;52.546;13.428;2023-03-14T01:26:50;12.00;99.90
3944;DHT22;1986;52.546;13.428;2023-03-14T01:29:17;12.00;99.90
3944;DHT22;1986;52.546;13.428;2023-03-14T01:31:44;12.00;99.90
3944;DHT22;1986;52.546;13.428;2023-03-14T01:34:12;12.00;99.90
3944;DHT22;1986;52.546;13.428;2023-03-14T01:36:39;12.00;99.90
3944;DHT22;1986;52.546;13.428;2023-03-14T01:39:12;12.00;99.90
3944;DHT22;1986;52.546;13.428;2023-03-14T01:41:40;12.00;99.90
3944;DHT22;1986;52.546;13.428;2023-03-14T01:44:10;12.00;99.90
3944;DHT22;1986;52.546;13.428;2023-03-14T01:46:39;12.00;99.90
3944;DHT22;1986;52.546;13.428;2023-03-14T01:49:12;12.00;99.90
3944;DHT22;1986;52.546;13.428;2023-03-14T01:51:45;12.00;99.90
3944;DHT22;1986;52.546;13.428;2023-03-14T01:54:18;12.10;99.90
3944;DHT22;1986;52.546;13.428;2023-03-14T01:56:49;12.10;99.90
3944;DHT22;1986;52.546;13.428;2023-03-14T01:59:17;12.10;99.90
3944;DHT22;1986;52.546;13.428;2023-03-14T02:01:46;12.10;99.90
3944;DHT22;1986;52.546;13.428;2023-03-14T02:04:17;12.10;99.90
3944;DHT22;1986;52.546;13.428;2023-03-14T02:06:50;12.10;99.90
3944;DHT22;1986;52.546;13.428;2023-03-14T02:09:18;12.10;99.90
3944;DHT22;1986;52.546;13.428;2023-03-14T02:11:46;12.00;99.90
3944;DHT22;1986;52.546;13.428;2023-03-14T02:14:22;12.00;99.90
3944;DHT22;1986;52.546;13.428;2023-03-14T02:16:54;12.10;99.90
3944;DHT22;1986;52.546;13.428;2023-03-14T02:19:30;12.10;99.90
3944;DHT22;1986;52.546;13.428;2023-03-14T02:22:05;12.00;99.90
3944;DHT22;1986;52.546;13.428;2023-03-14T02:24:39;12.00;99.90
3944;DHT22;1986;52.546;13.428;2023-03-14T02:27:10;12.00;99.90
3944;DHT22;1986;52.546;13.428;2023-03-14T02:29:43;12.00;99.90
3944;DHT22;1986;52.546;13.428;2023-03-14T02:32:13;12.00;99.90
3944;DHT22;1986;52.546;13.428;2023-03-14T02:34:43;12.00;99.90
3944;DHT22;1986;52.546;13.428;2023-03-14T02:37:13;12.00;99.90
3944;DHT22;1986;52.546;13.428;2023-03-14T02:39:43;12.00;99.90
3944;DHT22;1986;52.546;13.428;2023-03-14T02:42:13;12.00;99.90
3944;DHT22;1986;52.546;13.428;2023-03-14T02:44:55;12.00;99.90
3944;DHT22;1986;52.546;13.428;2023-03-14T02:47:29;12.00;99.90
3944;DHT22;1986;52.546;13.428;2023-03-14T02:50:00;12.10;99.90
3944;DHT22;1986;52.546;13.428;2023-03-14T02:52:28;12.10;99.90
3944;DHT22;1986;52.546;13.428;2023-03-14T02:54:55;12.10;99.90
3944;DHT22;1986;52.546;13.428;2023-03-14T02:57:24;12.10;99.90
3944;DHT22;1986;52.546;13.428;2023-03-14T02:59:51;12.00;99.90
3944;DHT22;1986;52.546;13.428;2023-03-14T03:02:18;12.00;99.90
3944;DHT22;1986;52.546;13.428;2023-03-14T03:04:45;12.00;99.90
3944;DHT22;1986;52.546;13.428;2023-03-14T03:07:12;12.00;99.90
3944;DHT22;1986;52.546;13.428;2023-03-14T03:09:39;12.00;99.90
3944;DHT22;1986;52.546;13.428;2023-03-14T03:12:06;12.00;99.90
3944;DHT22;1986;52.546;13.428;2023-03-14T03:14:35;11.90;99.90
3944;DHT22;1986;52.546;13.428;2023-03-14T03:17:03;11.90;99.90
3944;DHT22;1986;52.546;13.428;2023-03-14T03:19:30;11.90;99.90
3944;DHT22;1986;52.546;13.428;2023-03-14T03:21:57;11.80;99.90
3944;DHT22;1986;52.546;13.428;2023-03-14T03:24:25;11.80;99.90
3944;DHT22;1986;52.546;13.428;2023-03-14T03:26:52;11.80;99.90
3944;DHT22;1986;52.546;13.428;2023-03-14T03:29:19;11.80;99.90
3944;DHT22;1986;52.546;13.428;2023-03-14T03:31:48;11.80;99.90
3944;DHT22;1986;52.546;13.428;2023-03-14T03:34:15;11.80;99.90
3944;DHT22;1986;52.546;13.428;2023-03-14T03:36:42;11.80;99.90
3944;DHT22;1986;52.546;13.428;2023-03-14T03:39:09;11.80;99.90
3944;DHT22;1986;52.546;13.428;2023-03-14T03:41:36;11.80;99.90
3944;DHT22;1986;52.546;13.428;2023-03-14T03:44:04;11.80;99.90
3944;DHT22;1986;52.546;13.428;2023-03-14T03:46:31;11.80;99.90
3944;DHT22;1986;52.546;13.428;2023-03-14T03:49:00;11.80;99.90
3944;DHT22;1986;52.546;13.428;2023-03-14T03:51:27;11.80;99.90
3944;DHT22;1986;52.546;13.428;2023-03-14T03:53:56;11.70;99.90
3944;DHT22;1986;52.546;13.428;2023-03-14T03:56:24;11.70;99.90
3944;DHT22;1986;52.546;13.428;2023-03-14T03:58:51;11.80;99.90
3944;DHT22;1986;52.546;13.428;2023-03-14T04:01:18;11.70;99.90
3944;DHT22;1986;52.546;13.428;2023-03-14T04:03:45;11.70;99.90
3944;DHT22;1986;52.546;13.428;2023-03-14T04:06:13;11.70;99.90
3944;DHT22;1986;52.546;13.428;2023-03-14T04:08:40;11.70;99.90
3944;DHT22;1986;52.546;13.428;2023-03-14T04:11:11;11.70;99.90
3944;DHT22;1986;52.546;13.428;2023-03-14T04:13:38;11.60;99.90
3944;DHT22;1986;52.546;13.428;2023-03-14T04:16:12;11.70;99.90
3944;DHT22;1986;52.546;13.428;2023-03-14T04:18:40;11.60;99.90
3944;DHT22;1986;52.546;13.428;2023-03-14T04:21:07;11.60;99.90
3944;DHT22;1986;52.546;13.428;2023-03-14T04:23:35;11.60;99.90
3944;DHT22;1986;52.546;13.428;2023-03-14T04:26:03;11.60;99.90
3944;DHT22;1986;52.546;13.428;2023-03-14T04:28:30;11.60;99.90
3944;DHT22;1986;52.546;13.428;2023-03-14T04:30:57;11.60;99.90
3944;DHT22;1986;52.546;13.428;2023-03-14T04:33:24;11.60;99.90
3944;DHT22;1986;52.546;13.428;2023-03-14T04:35:53;11.60;99.90
3944;DHT22;1986;52.546;13.428;2023-03-14T04:38:20;11.60;99.90
3944;DHT22;1986;52.546;13.428;2023-03-14T04:40:49;11.60;99.90
3944;DHT22;1986;52.546;13.428;2023-03-14T04:43:16;11.60;99.90
3944;DHT22;1986;52.546;13.428;2023-03-14T04:45:43;11.60;99.90
3944;DHT22;1986;52.546;13.428;2023-03-14T04:48:11;11.60;99.90
3944;DHT22;1986;52.546;13.428;2023-03-14T04:50:38;11.60;99.90
3944;DHT22;1986;52.546;13.428;2023-03-14T04:53:05;11.60;99.90
3944;DHT22;1986;52.546;13.428;2023-03-14T04:55:32;11.60;99.90
3944;DHT22;1986;52.546;13.428;2023-03-14T04:58:01;11.50;99.90
3944;DHT22;1986;52.546;13.428;2023-03-14T05:00:28;11.50;99.90
3944;DHT22;1986;52.546;13.428;2023-03-14T05:02:55;11.50;99.90
3944;DHT22;1986;52.546;13.428;2023-03-14T05:05:22;11.50;99.90
3944;DHT22;1986;52.546;13.428;2023-03-14T05:07:51;11.50;99.90
3944;DHT22;1986;52.546;13.428;2023-03-14T05:10:18;11.50;99.90
3944;DHT22;1986;52.546;13.428;2023-03-14T05:12:47;11.50;99.90
3944;DHT22;1986;52.546;13.428;2023-03-14T05:15:30;11.50;99.90
3944;DHT22;1986;52.546;13.428;2023-03-14T05:17:57;11.50;99.90
3944;DHT22;1986;52.546;13.428;2023-03-14T05:20:26;11.50;99.90
3944;DHT22;1986;52.546;13.428;2023-03-14T05:22:53;11.50;99.90
3944;DHT22;1986;52.546;13.428;2023-03-14T05:25:20;11.50;99.90
3944;DHT22;1986;52.546;13.428;2023-03-14T05:27:47;11.50;99.90
3944;DHT22;1986;52.546;13.428;2023-03-14T05:30:14;11.50;99.90
3944;DHT22;1986;52.546;13.428;2023-03-14T05:32:44;11.50;99.90
3944;DHT22;1986;52.546;13.428;2023-03-14T05:35:11;11.50;99.90
3944;DHT22;1986;52.546;13.428;2023-03-14T05:37:38;11.50;99.90
3944;DHT22;1986;52.546;13.428;2023-03-14T05:40:06;11.50;99.90
3944;DHT22;1986;52.546;13.428;2023-03-14T05:42:34;11.50;99.90
3944;DHT22;1986;52.546;13.428;2023-03-14T05:45:01;11.50;99.90
3944;DHT22;1986;52.546;13.428;2023-03-14T05:47:28;11.50;99.90
3944;DHT22;1986;52.546;13.428;2023-03-14T05:49:56;11.50;99.90
3944;DHT22;1986;52.546;13.428;2023-03-14T05:52:23;11.50;99.90
3944;DHT22;1986;52.546;13.428;2023-03-14T05:54:50;11.50;99.90
3944;DHT22;1986;52.546;13.428;2023-03-14T05:57:17;11.50;99.90
3944;DHT22;1986;52.546;13.428;2023-03-14T05:59:44;11.50;99.90
3944;DHT22;1986;52.546;13.428;2023-03-14T06:02:12;11.50;99.90
3944;DHT22;1986;52.546;13.428;2023-03-14T06:04:39;11.60;99.90
3944;DHT22;1986;52.546;13.428;2023-03-14T06:07:07;11.60;99.90
3944;DHT22;1986;52.546;13.428;2023-03-14T06:09:34;11.60;99.90
3944;DHT22;1986;52.546;13.428;2023-03-14T06:12:03;11.60;99.90
3944;DHT22;1986;52.546;13.428;2023-03-14T06:14:31;11.60;99.90
3944;DHT22;1986;52.546;13.428;2023-03-14T06:16:58;11.60;99.90
3944;DHT22;1986;52.546;13.428;2023-03-14T06:19:25;11.60;99.90
3944;DHT22;1986;52.546;13.428;2023-03-14T06:21:52;11.70;99.90
3944;DHT22;1986;52.546;13.428;2023-03-14T06:24:21;11.70;99.90
3944;DHT22;1986;52.546;13.428;2023-03-14T06:26:47;11.70;99.90
3944;DHT22;1986;52.546;13.428;2023-03-14T06:29:14;11.70;99.90
3944;DHT22;1986;52.546;13.428;2023-03-14T06:31:41;11.80;99.90
3944;DHT22;1986;52.546;13.428;2023-03-14T06:34:09;11.80;99.90
3944;DHT22;1986;52.546;13.428;2023-03-14T06:36:36;11.80;99.90
3944;DHT22;1986;52.546;13.428;2023-03-14T06:39:03;11.80;99.90
3944;DHT22;1986;52.546;13.428;2023-03-14T06:41:31;11.80;99.90
3944;DHT22;1986;52.546;13.428;2023-03-14T06:43:58;11.90;99.90
3944;DHT22;1986;52.546;13.428;2023-03-14T06:46:25;11.90;99.90
3944;DHT22;1986;52.546;13.428;2023-03-14T06:48:52;12.00;99.90
3944;DHT22;1986;52.546;13.428;2023-03-14T06:51:20;12.10;99.90
3944;DHT22;1986;52.546;13.428;2023-03-14T06:53:47;12.00;99.90
3944;DHT22;1986;52.546;13.428;2023-03-14T06:56:14;12.10;99.90
3944;DHT22;1986;52.546;13.428;2023-03-14T06:58:42;12.10;99.90
3944;DHT22;1986;52.546;13.428;2023-03-14T07:01:20;12.20;99.90
3944;DHT22;1986;52.546;13.428;2023-03-14T07:03:47;12.20;99.90
3944;DHT22;1986;52.546;13.428;2023-03-14T07:06:14;12.30;99.90
3944;DHT22;1986;52.546;13.428;2023-03-14T07:08:42;12.30;99.90
3944;DHT22;1986;52.546;13.428;2023-03-14T07:11:10;12.40;99.90
3944;DHT22;1986;52.546;13.428;2023-03-14T07:13:38;12.40;99.90
3944;DHT22;1986;52.546;13.428;2023-03-14T07:16:07;12.60;99.90
3944;DHT22;1986;52.546;13.428;2023-03-14T07:18:35;12.50;99.90
3944;DHT22;1986;52.546;13.428;2023-03-14T07:21:03;12.50;99.90
3944;DHT22;1986;52.546;13.428;2023-03-14T07:23:30;12.50;99.90
3944;DHT22;1986;52.546;13.428;2023-03-14T07:25:57;12.60;99.90
3944;DHT22;1986;52.546;13.428;2023-03-14T07:28:24;12.50;99.90
3944;DHT22;1986;52.546;13.428;2023-03-14T07:30:52;12.40;99.90
3944;DHT22;1986;52.546;13.428;2023-03-14T07:33:23;12.40;99.90
3944;DHT22;1986;52.546;13.428;2023-03-14T07:35:50;12.50;99.90
3944;DHT22;1986;52.546;13.428;2023-03-14T07:38:21;12.60;99.90
3944;DHT22;1986;52.546;13.428;2023-03-14T07:40:49;12.60;99.90
3944;DHT22;1986;52.546;13.428;2023-03-14T07:43:19;12.60;99.90
3944;DHT22;1986;52.546;13.428;2023-03-14T07:45:46;12.60;99.90
3944;DHT22;1986;52.546;13.428;2023-03-14T07:48:14;12.50;99.90
3944;DHT22;1986;52.546;13.428;2023-03-14T07:50:44;12.50;99.90
3944;DHT22;1986;52.546;13.428;2023-03-14T07:53:16;12.40;99.90
3944;DHT22;1986;52.546;13.428;2023-03-14T07:55:43;12.40;99.90
3944;DHT22;1986;52.546;13.428;2023-03-14T07:58:10;12.50;99.90
3944;DHT22;1986;52.546;13.428;2023-03-14T08:00:37;12.40;99.90
3944;DHT22;1986;52.546;13.428;2023-03-14T08:03:05;12.40;99.90
3944;DHT22;1986;52.546;13.428;2023-03-14T08:05:34;12.50;99.90
3944;DHT22;1986;52.546;13.428;2023-03-14T08:08:03;12.60;99.90
3944;DHT22;1986;52.546;13.428;2023-03-14T08:10:31;12.70;99.90
3944;DHT22;1986;52.546;13.428;2023-03-14T08:12:59;12.80;99.90
3944;DHT22;1986;52.546;13.428;2023-03-14T08:15:28;12.80;99.90
3944;DHT22;1986;52.546;13.428;2023-03-14T08:17:57;12.90;99.90
3944;DHT22;1986;52.546;13.428;2023-03-14T08:20:37;12.90;99.90
3944;DHT22;1986;52.546;13.428;2023-03-14T08:25:58;13.20;99.90
3944;DHT22;1986;52.546;13.428;2023-03-14T08:28:25;13.30;99.90
3944;DHT22;1986;52.546;13.428;2023-03-14T08:30:56;13.40;99.90
3944;DHT22;1986;52.546;13.428;2023-03-14T08:33:24;13.40;99.90
3944;DHT22;1986;52.546;13.428;2023-03-14T08:35:52;13.40;99.90
3944;DHT22;1986;52.546;13.428;2023-03-14T08:38:20;13.30;99.90
3944;DHT22;1986;52.546;13.428;2023-03-14T08:40:47;13.30;99.90
3944;DHT22;1986;52.546;13.428;2023-03-14T08:43:15;13.20;99.90
3944;DHT22;1986;52.546;13.428;2023-03-14T08:45:43;13.20;99.90
3944;DHT22;1986;52.546;13.428;2023-03-14T08:48:10;13.20;99.90
3944;DHT22;1986;52.546;13.428;2023-03-14T08:50:37;13.10;99.90
3944;DHT22;1986;52.546;13.428;2023-03-14T08:53:04;13.20;99.90
3944;DHT22;1986;52.546;13.428;2023-03-14T08:55:32;13.20;99.90
3944;DHT22;1986;52.546;13.428;2023-03-14T08:57:59;13.20;99.90
3944;DHT22;1986;52.546;13.428;2023-03-14T09:00:26;13.20;99.90
3944;DHT22;1986;52.546;13.428;2023-03-14T09:02:53;13.10;99.90
3944;DHT22;1986;52.546;13.428;2023-03-14T09:05:20;13.00;99.90
3944;DHT22;1986;52.546;13.428;2023-03-14T09:07:49;12.90;99.90
3944;DHT22;1986;52.546;13.428;2023-03-14T09:10:17;12.80;99.90
3944;DHT22;1986;52.546;13.428;2023-03-14T09:12:46;12.90;99.90
3944;DHT22;1986;52.546;13.428;2023-03-14T09:15:13;12.90;99.90
3944;DHT22;1986;52.546;13.428;2023-03-14T09:17:42;13.00;99.90
3944;DHT22;1986;52.546;13.428;2023-03-14T09:20:10;13.20;99.90
3944;DHT22;1986;52.546;13.428;2023-03-14T09:22:37;13.30;99.90
3944;DHT22;1986;52.546;13.428;2023-03-14T09:25:05;13.50;99.90
3944;DHT22;1986;52.546;13.428;2023-03-14T09:27:32;13.50;99.90
3944;DHT22;1986;52.546;13.428;2023-03-14T09:30:00;13.60;99.90
3944;DHT22;1986;52.546;13.428;2023-03-14T09:32:27;13.70;99.90
3944;DHT22;1986;52.546;13.428;2023-03-14T09:34:55;13.90;99.90
3944;DHT22;1986;52.546;13.428;2023-03-14T09:37:22;13.90;99.90
3944;DHT22;1986;52.546;13.428;2023-03-14T09:39:50;14.10;99.90
3944;DHT22;1986;52.546;13.428;2023-03-14T09:42:21;14.20;99.90
3944;DHT22;1986;52.546;13.428;2023-03-14T09:44:55;14.20;99.90
3944;DHT22;1986;52.546;13.428;2023-03-14T09:47:25;14.20;99.90
3944;DHT22;1986;52.546;13.428;2023-03-14T09:49:53;14.40;99.90
3944;DHT22;1986;52.546;13.428;2023-03-14T09:52:22;14.60;99.90
3944;DHT22;1986;52.546;13.428;2023-03-14T09:54:52;14.60;99.90
3944;DHT22;1986;52.546;13.428;2023-03-14T09:57:24;14.40;99.90
3944;DHT22;1986;52.546;13.428;2023-03-14T09:59:56;14.30;99.90
3944;DHT22;1986;52.546;13.428;2023-03-14T10:02:33;14.30;99.90
3944;DHT22;1986;52.546;13.428;2023-03-14T10:05:08;14.30;99.90
3944;DHT22;1986;52.546;13.428;2023-03-14T10:07:40;14.20;99.90
3944;DHT22;1986;52.546;13.428;2023-03-14T10:10:12;14.00;99.90
3944;DHT22;1986;52.546;13.428;2023-03-14T10:12:44;13.90;99.90
3944;DHT22;1986;52.546;13.428;2023-03-14T10:15:13;13.90;99.90
3944;DHT22;1986;52.546;13.428;2023-03-14T10:17:51;14.00;99.90
3944;DHT22;1986;52.546;13.428;2023-03-14T10:20:32;14.10;99.90
3944;DHT22;1986;52.546;13.428;2023-03-14T10:23:01;13.90;99.90
3944;DHT22;1986;52.546;13.428;2023-03-14T10:25:30;13.80;99.90
3944;DHT22;1986;52.546;13.428;2023-03-14T10:27:59;13.90;99.90
3944;DHT22;1986;52.546;13.428;2023-03-14T10:30:34;14.10;99.90
3944;DHT22;1986;52.546;13.428;2023-03-14T10:33:20;14.10;99.90
3944;DHT22;1986;52.546;13.428;2023-03-14T10:35:53;14.10;99.90
3944;DHT22;1986;52.546;13.428;2023-03-14T10:38:24;14.20;99.90
3944;DHT22;1986;52.546;13.428;2023-03-14T10:40:55;14.10;99.90
3944;DHT22;1986;52.546;13.428;2023-03-14T10:43:25;14.10;99.90
3944;DHT22;1986;52.546;13.428;2023-03-14T10:45:56;14.10;99.90
3944;DHT22;1986;52.546;13.428;2023-03-14T10:48:30;14.10;99.90
3944;DHT22;1986;52.546;13.428;2023-03-14T10:51:05;14.00;99.90
3944;DHT22;1986;52.546;13.428;2023-03-14T10:53:38;14.00;99.90
3944;DHT22;1986;52.546;13.428;2023-03-14T10:56:06;14.00;99.90
3944;DHT22;1986;52.546;13.428;2023-03-14T10:58:38;13.90;99.90
3944;DHT22;1986;52.546;13.428;2023-03-14T11:01:22;13.90;99.90
3944;DHT22;1986;52.546;13.428;2023-03-14T11:03:59;13.80;99.90
3944;DHT22;1986;52.546;13.428;2023-03-14T11:06:39;13.80;99.90
3944;DHT22;1986;52.546;13.428;2023-03-14T11:09:15;13.80;99.90
3944;DHT22;1986;52.546;13.428;2023-03-14T11:11:48;14.00;99.90
3944;DHT22;1986;52.546;13.428;2023-03-14T11:14:26;14.00;99.90
3944;DHT22;1986;52.546;13.428;2023-03-14T11:17:00;14.10;99.90
3944;DHT22;1986;52.546;13.428;2023-03-14T11:19:49;14.10;99.90
3944;DHT22;1986;52.546;13.428;2023-03-14T11:22:28;14.10;99.90
3944;DHT22;1986;52.546;13.428;2023-03-14T11:25:09;14.10;99.90
3944;DHT22;1986;52.546;13.428;2023-03-14T11:27:51;14.10;99.90
3944;DHT22;1986;52.546;13.428;2023-03-14T11:30:27;14.10;99.90
3944;DHT22;1986;52.546;13.428;2023-03-14T11:33:02;14.10;99.90
3944;DHT22;1986;52.546;13.428;2023-03-14T11:35:35;14.20;99.90
3944;DHT22;1986;52.546;13.428;2023-03-14T11:38:12;14.20;99.90
3944;DHT22;1986;52.546;13.428;2023-03-14T11:40:40;14.10;99.90
3944;DHT22;1986;52.546;13.428;2023-03-14T11:43:15;14.10;99.90
3944;DHT22;1986;52.546;13.428;2023-03-14T11:45:47;14.10;99.90
3944;DHT22;1986;52.546;13.428;2023-03-14T11:48:28;14.00;99.90
3944;DHT22;1986;52.546;13.428;2023-03-14T11:51:20;14.00;99.90
3944;DHT22;1986;52.546;13.428;2023-03-14T11:54:00;14.00;99.90
3944;DHT22;1986;52.546;13.428;2023-03-14T11:56:33;14.00;99.90
3944;DHT22;1986;52.546;13.428;2023-03-14T11:59:04;13.90;99.90
3944;DHT22;1986;52.546;13.428;2023-03-14T12:01:55;13.80;99.90
3944;DHT22;1986;52.546;13.428;2023-03-14T12:04:48;13.90;99.90
3944;DHT22;1986;52.546;13.428;2023-03-14T12:07:34;13.80;99.90
3944;DHT22;1986;52.546;13.428;2023-03-14T12:10:02;13.80;99.90
3944;DHT22;1986;52.546;13.428;2023-03-14T12:12:30;14.00;99.90
3944;DHT22;1986;52.546;13.428;2023-03-14T12:15:00;14.10;99.90
3944;DHT22;1986;52.546;13.428;2023-03-14T12:17:37;14.20;99.90
3944;DHT22;1986;52.546;13.428;2023-03-14T12:20:17;14.20;99.90
3944;DHT22;1986;52.546;13.428;2023-03-14T12:22:48;14.20;99.90
3944;DHT22;1986;52.546;13.428;2023-03-14T12:25:19;14.10;99.90
3944;DHT22;1986;52.546;13.428;2023-03-14T12:28:02;13.90;99.90
3944;DHT22;1986;52.546;13.428;2023-03-14T12:30:31;14.00;99.90
3944;DHT22;1986;52.546;13.428;2023-03-14T12:36:47;14.10;99.90
3944;DHT22;1986;52.546;13.428;2023-03-14T12:39:31;14.20;99.90
3944;DHT22;1986;52.546;13.428;2023-03-14T12:42:04;14.20;99.90
3944;DHT22;1986;52.546;13.428;2023-03-14T12:44:42;14.30;99.90
3944;DHT22;1986;52.546;13.428;2023-03-14T12:47:55;14.20;99.90
3944;DHT22;1986;52.546;13.428;2023-03-14T12:51:26;14.40;99.90
3944;DHT22;1986;52.546;13.428;2023-03-14T12:57:37;14.50;99.90
3944;DHT22;1986;52.546;13.428;2023-03-14T13:00:19;14.40;99.90
3944;DHT22;1986;52.546;13.428;2023-03-14T13:02:49;14.50;99.90
3944;DHT22;1986;52.546;13.428;2023-03-14T13:05:19;14.60;99.90
3944;DHT22;1986;52.546;13.428;2023-03-14T13:08:08;14.60;99.90
3944;DHT22;1986;52.546;13.428;2023-03-14T13:10:42;14.40;99.90
3944;DHT22;1986;52.546;13.428;2023-03-14T13:13:17;14.20;99.90
3944;DHT22;1986;52.546;13.428;2023-03-14T13:15:46;13.80;99.90
3944;DHT22;1986;52.546;13.428;2023-03-14T13:18:26;13.40;99.90
3944;DHT22;1986;52.546;13.428;2023-03-14T13:21:03;13.20;99.90
3944;DHT22;1986;52.546;13.428;2023-03-14T13:23:38;13.10;99.90
3944;DHT22;1986;52.546;13.428;2023-03-14T13:26:13;12.90;99.90
3944;DHT22;1986;52.546;13.428;2023-03-14T13:32:33;12.70;99.90
3944;DHT22;1986;52.546;13.428;2023-03-14T13:35:24;12.60;99.90
3944;DHT22;1986;52.546;13.428;2023-03-14T13:38:01;12.70;99.90
3944;DHT22;1986;52.546;13.428;2023-03-14T13:40:34;12.90;99.90
3944;DHT22;1986;52.546;13.428;2023-03-14T13:43:09;13.00;99.90
3944;DHT22;1986;52.546;13.428;2023-03-14T13:48:36;13.40;99.90
3944;DHT22;1986;52.546;13.428;2023-03-14T13:51:11;13.50;99.90
3944;DHT22;1986;52.546;13.428;2023-03-14T13:53:44;13.60;99.90
3944;DHT22;1986;52.546;13.428;2023-03-14T13:56:12;13.70;99.90
3944;DHT22;1986;52.546;13.428;2023-03-14T13:58:40;13.70;99.90
3944;DHT22;1986;52.546;13.428;2023-03-14T14:01:17;13.80;99.90
3944;DHT22;1986;52.546;13.428;2023-03-14T14:03:49;13.80;99.90
3944;DHT22;1986;52.546;13.428;2023-03-14T14:06:29;13.90;99.90
3944;DHT22;1986;52.546;13.428;2023-03-14T14:08:59;14.00;99.90
3944;DHT22;1986;52.546;13.428;2023-03-14T14:11:38;14.10;99.90
3944;DHT22;1986;52.546;13.428;2023-03-14T14:14:26;14.20;99.90
3944;DHT22;1986;52.546;13.428;2023-03-14T14:16:58;14.10;99.90
3944;DHT22;1986;52.546;13.428;2023-03-14T14:19:33;14.10;99.90
3944;DHT22;1986;52.546;13.428;2023-03-14T14:22:04;14.20;99.90
3944;DHT22;1986;52.546;13.428;2023-03-14T14:24:36;14.20;99.90
3944;DHT22;1986;52.546;13.428;2023-03-14T14:27:12;14.20;99.90
3944;DHT22;1986;52.546;13.428;2023-03-14T14:29:42;14.30;99.90
3944;DHT22;1986;52.546;13.428;2023-03-14T14:32:17;14.30;99.90
3944;DHT22;1986;52.546;13.428;2023-03-14T14:35:21;14.40;99.90
3944;DHT22;1986;52.546;13.428;2023-03-14T14:37:51;14.40;99.90
3944;DHT22;1986;52.546;13.428;2023-03-14T14:40:24;14.40;99.90
3944;DHT22;1986;52.546;13.428;2023-03-14T14:43:03;14.30;99.90
3944;DHT22;1986;52.546;13.428;2023-03-14T14:45:34;14.20;99.90
3944;DHT22;1986;52.546;13.428;2023-03-14T14:48:09;14.10;99.90
3944;DHT22;1986;52.546;13.428;2023-03-14T14:50:58;14.20;99.90
3944;DHT22;1986;52.546;13.428;2023-03-14T14:53:30;14.30;99.90
3944;DHT22;1986;52.546;13.428;2023-03-14T14:56:18;14.30;99.90
3944;DHT22;1986;52.546;13.428;2023-03-14T14:59:22;14.20;99.90
3944;DHT22;1986;52.546;13.428;2023-03-14T15:02:27;14.10;99.90
3944;DHT22;1986;52.546;13.428;2023-03-14T15:05:14;14.10;99.90
3944;DHT22;1986;52.546;13.428;2023-03-14T15:07:46;14.20;99.90
3944;DHT22;1986;52.546;13.428;2023-03-14T15:10:16;14.20;99.90
3944;DHT22;1986;52.546;13.428;2023-03-14T15:13:00;14.10;99.90
3944;DHT22;1986;52.546;13.428;2023-03-14T15:15:30;14.10;99.90
3944;DHT22;1986;52.546;13.428;2023-03-14T15:18:00;14.00;99.90
3944;DHT22;1986;52.546;13.428;2023-03-14T15:20:35;13.90;99.90
3944;DHT22;1986;52.546;13.428;2023-03-14T15:23:41;12.80;99.90
3944;DHT22;1986;52.546;13.428;2023-03-14T15:26:27;10.00;99.90
3944;DHT22;1986;52.546;13.428;2023-03-14T15:29:10;8.60;99.90
3944;DHT22;1986;52.546;13.428;2023-03-14T15:31:44;8.00;99.90
3944;DHT22;1986;52.546;13.428;2023-03-14T15:34:33;7.80;99.90
3944;DHT22;1986;52.546;13.428;2023-03-14T15:37:27;7.50;99.90
3944;DHT22;1986;52.546;13.428;2023-03-14T15:40:16;7.40;99.90
3944;DHT22;1986;52.546;13.428;2023-03-14T15:42:44;7.10;99.90
3944;DHT22;1986;52.546;13.428;2023-03-14T15:45:13;7.10;99.90
3944;DHT22;1986;52.546;13.428;2023-03-14T15:47:41;6.80;99.90
3944;DHT22;1986;52.546;13.428;2023-03-14T15:50:12;6.40;99.90
3944;DHT22;1986;52.546;13.428;2023-03-14T15:52:51;6.30;99.90
3944;DHT22;1986;52.546;13.428;2023-03-14T16:02:29;4.70;99.90
3944;DHT22;1986;52.546;13.428;2023-03-14T16:05:02;4.20;99.90
3944;DHT22;1986;52.546;13.428;2023-03-14T16:07:45;4.20;99.90
3944;DHT22;1986;52.546;13.428;2023-03-14T16:10:22;3.90;99.90
3944;DHT22;1986;52.546;13.428;2023-03-14T16:13:06;3.80;99.90
3944;DHT22;1986;52.546;13.428;2023-03-14T16:15:55;3.60;99.90
3944;DHT22;1986;52.546;13.428;2023-03-14T16:24:51;3.00;99.90
3944;DHT22;1986;52.546;13.428;2023-03-14T16:27:22;3.00;99.90
3944;DHT22;1986;52.546;13.428;2023-03-14T16:29:52;2.80;99.90
3944;DHT22;1986;52.546;13.428;2023-03-14T16:32:25;2.90;99.90
3944;DHT22;1986;52.546;13.428;2023-03-14T16:48:48;2.30;99.90
3944;DHT22;1986;52.546;13.428;2023-03-14T16:51:49;2.40;99.90
3944;DHT22;1986;52.546;13.428;2023-03-14T16:54:22;2.40;99.90
3944;DHT22;1986;52.546;13.428;2023-03-14T16:57:13;2.50;99.90
3944;DHT22;1986;52.546;13.428;2023-03-14T17:00:16;2.60;99.90